sensor_id;sensor_type;location;lat;lon;timestamp;pressure;altitude;pressure_sealevel;temperature;humidity
72055;BME280;59936;51.490;5.436;2023-07-13T00:05:12;101303.22;;;15.85;59.87
72055;BME280;59936;51.490;5.436;2023-07-13T00:07:42;101303.59;;;15.82;58.70
72055;BME280;59936;51.490;5.436;2023-07-13T00:10:10;101296.97;;;15.84;59.03
72055;BME280;59936;51.490;5.436;2023-07-13T00:12:39;101294.47;;;15.83;59.59
72055;BME280;59936;51.490;5.436;2023-07-13T00:15:22;101297.16;;;15.83;59.51
72055;BME280;59936;51.490;5.436;2023-07-13T00:17:54;101291.31;;;15.79;59.66
72055;BME280;59936;51.490;5.436;2023-07-13T00:20:24;101288.31;;;15.74;59.78
72055;BME280;59936;51.490;5.436;2023-07-13T00:22:54;101288.50;;;15.72;60.00
72055;BME280;59936;51.490;5.436;2023-07-13T00:25:23;101293.44;;;15.69;60.44
72055;BME280;59936;51.490;5.436;2023-07-13T00:27:52;101290.75;;;15.69;60.16
72055;BME280;59936;51.490;5.436;2023-07-13T00:30:21;101289.72;;;15.70;60.30
72055;BME280;59936;51.490;5.436;2023-07-13T00:32:50;101290.19;;;15.73;60.24
72055;BME280;59936;51.490;5.436;2023-07-13T00:35:18;101283.94;;;15.73;60.49
72055;BME280;59936;51.490;5.436;2023-07-13T00:37:47;101294.28;;;15.69;60.76
72055;BME280;59936;51.490;5.436;2023-07-13T00:40:16;101294.28;;;15.69;60.78
72055;BME280;59936;51.490;5.436;2023-07-13T00:42:45;101292.44;;;15.70;60.92
72055;BME280;59936;51.490;5.436;2023-07-13T00:47:43;101303.53;;;15.60;61.37
72055;BME280;59936;51.490;5.436;2023-07-13T00:50:14;101302.53;;;15.61;61.13
72055;BME280;59936;51.490;5.436;2023-07-13T00:52:50;101309.41;;;15.64;61.12
72055;BME280;59936;51.490;5.436;2023-07-13T00:55:22;101309.13;;;15.59;61.39
72055;BME280;59936;51.490;5.436;2023-07-13T00:57:51;101303.06;;;15.57;61.66
72055;BME280;59936;51.490;5.436;2023-07-13T01:00:20;101305.97;;;15.55;61.52
72055;BME280;59936;51.490;5.436;2023-07-13T01:02:51;101306.69;;;15.49;62.79
72055;BME280;59936;51.490;5.436;2023-07-13T01:05:21;101294.69;;;15.52;61.82
72055;BME280;59936;51.490;5.436;2023-07-13T01:07:51;101306.06;;;15.47;62.07
72055;BME280;59936;51.490;5.436;2023-07-13T01:10:22;101306.06;;;15.47;62.07
72055;BME280;59936;51.490;5.436;2023-07-13T01:12:52;101302.50;;;15.47;61.99
72055;BME280;59936;51.490;5.436;2023-07-13T01:18:15;101302.44;;;15.40;62.24
72055;BME280;59936;51.490;5.436;2023-07-13T01:21:02;101307.47;;;15.43;62.34
72055;BME280;59936;51.490;5.436;2023-07-13T01:23:32;101305.22;;;15.47;62.48
72055;BME280;59936;51.490;5.436;2023-07-13T01:26:01;101304.78;;;15.43;62.72
72055;BME280;59936;51.490;5.436;2023-07-13T01:28:30;101308.88;;;15.39;63.00
72055;BME280;59936;51.490;5.436;2023-07-13T01:30:58;101307.66;;;15.42;62.77
72055;BME280;59936;51.490;5.436;2023-07-13T01:33:27;101310.53;;;15.40;62.74
72055;BME280;59936;51.490;5.436;2023-07-13T01:35:56;101307.84;;;15.40;62.52
72055;BME280;59936;51.490;5.436;2023-07-13T01:38:24;101310.53;;;15.40;62.70
72055;BME280;59936;51.490;5.436;2023-07-13T01:40:53;101302.81;;;15.37;62.92
72055;BME280;59936;51.490;5.436;2023-07-13T01:43:22;101304.19;;;15.33;63.08
72055;BME280;59936;51.490;5.436;2023-07-13T01:45:51;101312.66;;;15.30;63.26
72055;BME280;59936;51.490;5.436;2023-07-13T01:48:19;101312.97;;;15.35;63.06
72055;BME280;59936;51.490;5.436;2023-07-13T01:50:48;101314.53;;;15.29;63.36
72055;BME280;59936;51.490;5.436;2023-07-13T01:53:17;101319.47;;;15.26;63.53
72055;BME280;59936;51.490;5.436;2023-07-13T01:56:03;101316.94;;;15.24;63.95
72055;BME280;59936;51.490;5.436;2023-07-13T01:58:32;101324.50;;;15.29;63.58
72055;BME280;59936;51.490;5.436;2023-07-13T02:01:01;101323.19;;;15.25;63.70
72055;BME280;59936;51.490;5.436;2023-07-13T02:03:29;101323.94;;;15.19;64.12
72055;BME280;59936;51.490;5.436;2023-07-13T02:05:58;101324.97;;;15.18;63.82
72055;BME280;59936;51.490;5.436;2023-07-13T02:08:27;101319.75;;;15.16;64.27
72055;BME280;59936;51.490;5.436;2023-07-13T02:10:55;101324.31;;;15.16;64.00
72055;BME280;59936;51.490;5.436;2023-07-13T02:13:24;101333.78;;;15.12;64.49
72055;BME280;59936;51.490;5.436;2023-07-13T02:15:52;101330.63;;;15.08;64.44
72055;BME280;59936;51.490;5.436;2023-07-13T02:18:21;101331.81;;;15.05;64.95
72055;BME280;59936;51.490;5.436;2023-07-13T02:20:49;101337.03;;;15.07;64.40
72055;BME280;59936;51.490;5.436;2023-07-13T02:23:18;101328.47;;;15.03;64.52
72055;BME280;59936;51.490;5.436;2023-07-13T02:25:47;101322.44;;;15.01;64.52
72055;BME280;59936;51.490;5.436;2023-07-13T02:28:15;101338.16;;;14.98;64.59
72055;BME280;59936;51.490;5.436;2023-07-13T02:30:44;101329.75;;;14.93;65.35
72055;BME280;59936;51.490;5.436;2023-07-13T02:33:13;101323.34;;;14.94;64.77
72055;BME280;59936;51.490;5.436;2023-07-13T02:35:41;101328.94;;;14.92;64.82
72055;BME280;59936;51.490;5.436;2023-07-13T02:38:10;101330.13;;;14.90;64.80
72055;BME280;59936;51.490;5.436;2023-07-13T02:40:39;101335.53;;;14.90;65.13
72055;BME280;59936;51.490;5.436;2023-07-13T02:43:07;101329.81;;;14.85;66.32
72055;BME280;59936;51.490;5.436;2023-07-13T02:45:36;101336.72;;;14.87;65.38
72055;BME280;59936;51.490;5.436;2023-07-13T02:48:04;101335.03;;;14.86;65.51
72055;BME280;59936;51.490;5.436;2023-07-13T02:50:33;101335.03;;;14.86;65.51
72055;BME280;59936;51.490;5.436;2023-07-13T02:53:02;101340.53;;;14.78;65.69
72055;BME280;59936;51.490;5.436;2023-07-13T02:55:30;101338.66;;;14.79;65.52
72055;BME280;59936;51.490;5.436;2023-07-13T02:57:59;101332.44;;;14.78;65.72
72055;BME280;59936;51.490;5.436;2023-07-13T03:00:27;101329.44;;;14.73;65.77
72055;BME280;59936;51.490;5.436;2023-07-13T03:02:56;101322.66;;;14.77;65.70
72055;BME280;59936;51.490;5.436;2023-07-13T03:05:25;101338.38;;;14.74;66.58
72055;BME280;59936;51.490;5.436;2023-07-13T03:07:53;101331.28;;;14.73;65.97
72055;BME280;59936;51.490;5.436;2023-07-13T03:10:22;101335.69;;;14.74;65.99
72055;BME280;59936;51.490;5.436;2023-07-13T03:12:52;101337.53;;;14.73;66.08
72055;BME280;59936;51.490;5.436;2023-07-13T03:15:20;101340.56;;;14.70;66.43
72055;BME280;59936;51.490;5.436;2023-07-13T03:17:49;101338.88;;;14.69;66.58
72055;BME280;59936;51.490;5.436;2023-07-13T03:20:18;101341.75;;;14.67;66.46
72055;BME280;59936;51.490;5.436;2023-07-13T03:22:46;101342.59;;;14.68;66.50
72055;BME280;59936;51.490;5.436;2023-07-13T03:25:15;101342.09;;;14.64;67.12
72055;BME280;59936;51.490;5.436;2023-07-13T03:27:44;101335.88;;;14.64;67.29
72055;BME280;59936;51.490;5.436;2023-07-13T03:30:12;101336.06;;;14.62;67.07
72055;BME280;59936;51.490;5.436;2023-07-13T03:32:41;101344.16;;;14.62;66.99
72055;BME280;59936;51.490;5.436;2023-07-13T03:35:10;101347.19;;;14.59;67.33
72055;BME280;59936;51.490;5.436;2023-07-13T03:37:38;101348.44;;;14.57;67.74
72055;BME280;59936;51.490;5.436;2023-07-13T03:40:08;101348.88;;;14.60;67.29
72055;BME280;59936;51.490;5.436;2023-07-13T03:42:37;101357.19;;;14.59;67.33
72055;BME280;59936;51.490;5.436;2023-07-13T03:45:06;101355.50;;;14.58;67.44
72055;BME280;59936;51.490;5.436;2023-07-13T03:47:35;101354.09;;;14.62;67.35
72055;BME280;59936;51.490;5.436;2023-07-13T03:50:04;101362.56;;;14.59;68.03
72055;BME280;59936;51.490;5.436;2023-07-13T03:52:33;101356.53;;;14.57;67.84
72055;BME280;59936;51.490;5.436;2023-07-13T03:55:02;101355.94;;;14.61;67.66
72055;BME280;59936;51.490;5.436;2023-07-13T03:57:31;101356.34;;;14.58;68.60
72055;BME280;59936;51.490;5.436;2023-07-13T04:00:00;101362.38;;;14.60;68.72
72055;BME280;59936;51.490;5.436;2023-07-13T04:02:29;101360.50;;;14.61;67.97
72055;BME280;59936;51.490;5.436;2023-07-13T04:04:57;101362.84;;;14.64;68.33
72055;BME280;59936;51.490;5.436;2023-07-13T04:07:26;101365.19;;;14.67;68.11
72055;BME280;59936;51.490;5.436;2023-07-13T04:09:54;101369.25;;;14.71;68.12
72055;BME280;59936;51.490;5.436;2023-07-13T04:12:23;101382.78;;;14.86;68.48
72055;BME280;59936;51.490;5.436;2023-07-13T04:14:51;101382.78;;;14.86;68.48
72055;BME280;59936;51.490;5.436;2023-07-13T04:17:20;101372.81;;;14.86;68.91
72055;BME280;59936;51.490;5.436;2023-07-13T04:19:49;101381.88;;;14.93;69.67
72055;BME280;59936;51.490;5.436;2023-07-13T04:22:17;101383.94;;;15.06;68.64
72055;BME280;59936;51.490;5.436;2023-07-13T04:24:46;101383.03;;;15.14;68.78
72055;BME280;59936;51.490;5.436;2023-07-13T04:27:14;101385.69;;;15.22;69.09
72055;BME280;59936;51.490;5.436;2023-07-13T04:29:43;101386.63;;;15.44;68.76
72055;BME280;59936;51.490;5.436;2023-07-13T04:32:12;101386.63;;;15.44;68.76
72055;BME280;59936;51.490;5.436;2023-07-13T04:34:40;101386.25;;;15.47;68.93
72055;BME280;59936;51.490;5.436;2023-07-13T04:37:09;101385.13;;;15.56;69.12
72055;BME280;59936;51.490;5.436;2023-07-13T04:39:37;101381.41;;;15.57;69.40
72055;BME280;59936;51.490;5.436;2023-07-13T04:42:06;101381.03;;;15.60;69.93
72055;BME280;59936;51.490;5.436;2023-07-13T04:44:35;101392.56;;;15.68;69.48
72055;BME280;59936;51.490;5.436;2023-07-13T04:47:03;101390.44;;;15.79;69.17
72055;BME280;59936;51.490;5.436;2023-07-13T04:49:32;101391.41;;;15.86;69.23
72055;BME280;59936;51.490;5.436;2023-07-13T04:52:01;101392.31;;;15.93;69.58
72055;BME280;59936;51.490;5.436;2023-07-13T04:54:29;101387.00;;;15.99;69.29
72055;BME280;59936;51.490;5.436;2023-07-13T04:56:58;101400.88;;;16.11;69.07
72055;BME280;59936;51.490;5.436;2023-07-13T04:59:26;101401.59;;;16.20;69.17
72055;BME280;59936;51.490;5.436;2023-07-13T05:01:55;101397.88;;;16.21;69.59
72055;BME280;59936;51.490;5.436;2023-07-13T05:04:24;101402.34;;;16.28;69.22
72055;BME280;59936;51.490;5.436;2023-07-13T05:06:52;101413.63;;;16.32;69.78
72055;BME280;59936;51.490;5.436;2023-07-13T05:09:21;101404.09;;;16.36;69.36
72055;BME280;59936;51.490;5.436;2023-07-13T05:11:50;101412.09;;;16.44;69.54
72055;BME280;59936;51.490;5.436;2023-07-13T05:14:19;101406.75;;;16.51;69.30
72055;BME280;59936;51.490;5.436;2023-07-13T05:16:47;101406.88;;;16.64;69.04
72055;BME280;59936;51.490;5.436;2023-07-13T05:19:16;101409.41;;;16.65;69.43
72055;BME280;59936;51.490;5.436;2023-07-13T05:21:45;101414.81;;;16.65;69.24
72055;BME280;59936;51.490;5.436;2023-07-13T05:24:13;101428.53;;;16.64;69.48
72055;BME280;59936;51.490;5.436;2023-07-13T05:26:42;101424.63;;;16.66;69.56
72055;BME280;59936;51.490;5.436;2023-07-13T05:29:11;101425.72;;;16.72;69.50
72055;BME280;59936;51.490;5.436;2023-07-13T05:31:39;101425.97;;;16.77;69.74
72055;BME280;59936;51.490;5.436;2023-07-13T05:34:08;101431.00;;;16.80;69.83
72055;BME280;59936;51.490;5.436;2023-07-13T05:36:36;101432.84;;;16.80;70.33
72055;BME280;59936;51.490;5.436;2023-07-13T05:39:05;101436.22;;;16.82;69.84
72055;BME280;59936;51.490;5.436;2023-07-13T05:41:34;101439.75;;;16.82;69.78
72055;BME280;59936;51.490;5.436;2023-07-13T05:44:02;101432.34;;;16.91;69.52
72055;BME280;59936;51.490;5.436;2023-07-13T05:46:31;101434.81;;;16.86;70.01
72055;BME280;59936;51.490;5.436;2023-07-13T05:49:00;101441.88;;;16.87;70.16
72055;BME280;59936;51.490;5.436;2023-07-13T05:51:29;101437.59;;;16.92;70.04
72055;BME280;59936;51.490;5.436;2023-07-13T05:53:57;101445.69;;;16.92;70.26
72055;BME280;59936;51.490;5.436;2023-07-13T05:56:26;101443.91;;;16.99;69.88
72055;BME280;59936;51.490;5.436;2023-07-13T05:58:56;101440.69;;;17.11;69.81
72055;BME280;59936;51.490;5.436;2023-07-13T06:01:24;101445.28;;;17.10;69.70
72055;BME280;59936;51.490;5.436;2023-07-13T06:03:53;101446.09;;;17.11;69.97
72055;BME280;59936;51.490;5.436;2023-07-13T06:06:22;101447.63;;;17.20;69.93
72055;BME280;59936;51.490;5.436;2023-07-13T06:08:51;101452.53;;;17.31;69.55
72055;BME280;59936;51.490;5.436;2023-07-13T06:11:22;101454.28;;;17.38;69.55
72055;BME280;59936;51.490;5.436;2023-07-13T06:13:53;101458.00;;;17.65;69.26
72055;BME280;59936;51.490;5.436;2023-07-13T06:16:22;101458.00;;;17.65;69.26
72055;BME280;59936;51.490;5.436;2023-07-13T06:18:51;101454.50;;;17.71;69.21
72055;BME280;59936;51.490;5.436;2023-07-13T06:21:21;101462.50;;;17.80;69.10
72055;BME280;59936;51.490;5.436;2023-07-13T06:23:52;101460.22;;;17.83;68.90
72055;BME280;59936;51.490;5.436;2023-07-13T06:26:21;101471.84;;;17.77;69.20
72055;BME280;59936;51.490;5.436;2023-07-13T06:28:50;101471.28;;;17.88;68.97
72055;BME280;59936;51.490;5.436;2023-07-13T06:31:18;101471.28;;;17.88;68.97
72055;BME280;59936;51.490;5.436;2023-07-13T06:33:47;101469.19;;;17.84;69.13
72055;BME280;59936;51.490;5.436;2023-07-13T06:36:15;101464.00;;;17.89;68.96
72055;BME280;59936;51.490;5.436;2023-07-13T06:38:44;101466.31;;;17.92;68.88
72055;BME280;59936;51.490;5.436;2023-07-13T06:41:13;101472.56;;;17.92;68.91
72055;BME280;59936;51.490;5.436;2023-07-13T06:43:41;101479.88;;;17.92;68.74
72055;BME280;59936;51.490;5.436;2023-07-13T06:46:10;101476.50;;;17.83;69.11
72055;BME280;59936;51.490;5.436;2023-07-13T06:48:39;101477.72;;;17.81;69.09
72055;BME280;59936;51.490;5.436;2023-07-13T06:51:08;101479.41;;;17.82;69.07
72055;BME280;59936;51.490;5.436;2023-07-13T06:53:37;101480.84;;;17.84;69.00
72055;BME280;59936;51.490;5.436;2023-07-13T06:56:05;101481.72;;;17.91;69.13
72055;BME280;59936;51.490;5.436;2023-07-13T06:58:34;101485.00;;;18.08;68.58
72055;BME280;59936;51.490;5.436;2023-07-13T07:01:04;101498.19;;;18.18;68.69
72055;BME280;59936;51.490;5.436;2023-07-13T07:03:33;101496.38;;;18.25;68.37
72055;BME280;59936;51.490;5.436;2023-07-13T07:06:11;101498.03;;;18.26;68.31
72055;BME280;59936;51.490;5.436;2023-07-13T07:08:42;101485.34;;;18.33;68.13
72055;BME280;59936;51.490;5.436;2023-07-13T07:11:17;101489.47;;;18.29;68.21
72055;BME280;59936;51.490;5.436;2023-07-13T07:13:55;101493.31;;;18.41;68.04
72055;BME280;59936;51.490;5.436;2023-07-13T07:16:24;101491.31;;;18.63;67.76
72055;BME280;59936;51.490;5.436;2023-07-13T07:18:53;101491.31;;;18.63;67.76
72055;BME280;59936;51.490;5.436;2023-07-13T07:21:22;101490.47;;;18.62;67.79
72055;BME280;59936;51.490;5.436;2023-07-13T07:23:51;101500.31;;;18.76;67.49
72055;BME280;59936;51.490;5.436;2023-07-13T07:26:20;101496.34;;;18.72;67.53
72055;BME280;59936;51.490;5.436;2023-07-13T07:28:49;101497.63;;;18.83;67.35
72055;BME280;59936;51.490;5.436;2023-07-13T07:31:17;101502.66;;;18.86;67.15
72055;BME280;59936;51.490;5.436;2023-07-13T07:33:46;101502.09;;;18.91;66.98
72055;BME280;59936;51.490;5.436;2023-07-13T07:36:15;101502.09;;;18.91;66.98
72055;BME280;59936;51.490;5.436;2023-07-13T07:38:44;101507.75;;;19.09;66.96
72055;BME280;59936;51.490;5.436;2023-07-13T07:41:13;101499.84;;;19.40;66.33
72055;BME280;59936;51.490;5.436;2023-07-13T07:43:42;101503.59;;;19.86;66.22
72055;BME280;59936;51.490;5.436;2023-07-13T07:46:10;101504.28;;;20.45;65.04
72055;BME280;59936;51.490;5.436;2023-07-13T07:48:39;101505.47;;;20.63;64.68
72055;BME280;59936;51.490;5.436;2023-07-13T07:51:08;101503.19;;;21.04;64.58
72055;BME280;59936;51.490;5.436;2023-07-13T07:53:36;101507.28;;;21.45;64.03
72055;BME280;59936;51.490;5.436;2023-07-13T07:56:05;101500.63;;;21.66;63.55
72055;BME280;59936;51.490;5.436;2023-07-13T07:58:33;101502.91;;;21.94;63.08
72055;BME280;59936;51.490;5.436;2023-07-13T08:01:04;101508.09;;;22.38;62.75
72055;BME280;59936;51.490;5.436;2023-07-13T08:03:33;101503.94;;;23.14;61.68
72055;BME280;59936;51.490;5.436;2023-07-13T08:06:02;101503.94;;;23.14;61.68
72055;BME280;59936;51.490;5.436;2023-07-13T08:08:31;101507.97;;;22.81;60.78
72055;BME280;59936;51.490;5.436;2023-07-13T08:11:03;101497.41;;;22.37;61.25
72055;BME280;59936;51.490;5.436;2023-07-13T08:13:33;101513.72;;;22.00;61.31
72055;BME280;59936;51.490;5.436;2023-07-13T08:16:04;101511.53;;;21.66;61.71
72055;BME280;59936;51.490;5.436;2023-07-13T08:18:33;101515.41;;;22.19;60.10
72055;BME280;59936;51.490;5.436;2023-07-13T08:21:07;101515.41;;;22.19;60.10
72055;BME280;59936;51.490;5.436;2023-07-13T08:23:36;101508.41;;;22.30;59.16
72055;BME280;59936;51.490;5.436;2023-07-13T08:26:05;101507.81;;;21.60;59.76
72055;BME280;59936;51.490;5.436;2023-07-13T08:28:34;101516.38;;;21.89;59.52
72055;BME280;59936;51.490;5.436;2023-07-13T08:31:04;101504.66;;;22.91;57.37
72055;BME280;59936;51.490;5.436;2023-07-13T08:33:36;101511.03;;;22.85;55.56
72055;BME280;59936;51.490;5.436;2023-07-13T08:36:05;101506.94;;;22.28;57.79
72055;BME280;59936;51.490;5.436;2023-07-13T08:38:33;101519.78;;;21.84;58.71
72055;BME280;59936;51.490;5.436;2023-07-13T08:41:10;101516.63;;;22.60;57.16
72055;BME280;59936;51.490;5.436;2023-07-13T08:43:45;101508.72;;;23.83;55.16
72055;BME280;59936;51.490;5.436;2023-07-13T08:46:33;101508.38;;;24.43;54.12
72055;BME280;59936;51.490;5.436;2023-07-13T08:49:13;101509.53;;;23.84;54.96
72055;BME280;59936;51.490;5.436;2023-07-13T08:51:47;101506.41;;;23.80;53.40
72055;BME280;59936;51.490;5.436;2023-07-13T08:54:30;101499.44;;;23.19;55.46
72055;BME280;59936;51.490;5.436;2023-07-13T08:57:19;101503.59;;;24.10;54.19
72055;BME280;59936;51.490;5.436;2023-07-13T08:59:51;101498.41;;;25.22;52.03
72055;BME280;59936;51.490;5.436;2023-07-13T09:02:26;101501.88;;;25.01;51.99
72055;BME280;59936;51.490;5.436;2023-07-13T09:05:14;101496.66;;;24.19;53.87
72055;BME280;59936;51.490;5.436;2023-07-13T09:08:00;101508.09;;;24.05;53.14
72055;BME280;59936;51.490;5.436;2023-07-13T09:16:17;101505.94;;;24.99;51.06
72055;BME280;59936;51.490;5.436;2023-07-13T09:18:49;101511.19;;;24.72;51.65
72055;BME280;59936;51.490;5.436;2023-07-13T09:21:25;101511.19;;;24.72;51.65
72055;BME280;59936;51.490;5.436;2023-07-13T09:27:21;101501.72;;;25.08;48.03
72055;BME280;59936;51.490;5.436;2023-07-13T09:32:50;101505.63;;;25.74;49.10
72055;BME280;59936;51.490;5.436;2023-07-13T09:35:23;101509.28;;;25.63;49.71
72055;BME280;59936;51.490;5.436;2023-07-13T09:38:01;101499.16;;;25.63;49.82
72055;BME280;59936;51.490;5.436;2023-07-13T09:44:18;101501.09;;;24.09;51.94
72055;BME280;59936;51.490;5.436;2023-07-13T09:46:59;101510.59;;;23.95;50.59
72055;BME280;59936;51.490;5.436;2023-07-13T09:49:35;101508.72;;;23.83;51.40
72055;BME280;59936;51.490;5.436;2023-07-13T09:52:09;101501.53;;;24.29;51.12
72055;BME280;59936;51.490;5.436;2023-07-13T09:54:44;101498.84;;;25.14;49.45
72055;BME280;59936;51.490;5.436;2023-07-13T09:57:16;101492.88;;;25.68;48.34
72055;BME280;59936;51.490;5.436;2023-07-13T09:59:49;101495.31;;;25.31;48.54
72055;BME280;59936;51.490;5.436;2023-07-13T10:02:33;101499.66;;;24.98;49.42
72055;BME280;59936;51.490;5.436;2023-07-13T10:05:05;101505.41;;;24.85;48.20
72055;BME280;59936;51.490;5.436;2023-07-13T10:07:41;101499.59;;;24.81;48.99
72055;BME280;59936;51.490;5.436;2023-07-13T10:10:18;101499.75;;;24.75;49.23
72055;BME280;59936;51.490;5.436;2023-07-13T10:12:50;101497.19;;;25.13;46.41
72055;BME280;59936;51.490;5.436;2023-07-13T10:15:21;101493.28;;;24.81;48.96
72055;BME280;59936;51.490;5.436;2023-07-13T10:17:54;101506.69;;;25.73;47.85
72055;BME280;59936;51.490;5.436;2023-07-13T10:20:25;101506.69;;;25.73;47.85
72055;BME280;59936;51.490;5.436;2023-07-13T10:23:00;101504.50;;;25.91;47.33
72055;BME280;59936;51.490;5.436;2023-07-13T10:25:34;101500.88;;;25.52;47.75
72055;BME280;59936;51.490;5.436;2023-07-13T10:28:28;101503.66;;;25.24;48.21
72055;BME280;59936;51.490;5.436;2023-07-13T10:31:01;101502.38;;;25.27;48.44
72055;BME280;59936;51.490;5.436;2023-07-13T10:33:33;101508.03;;;25.08;48.17
72055;BME280;59936;51.490;5.436;2023-07-13T10:36:16;101515.31;;;24.86;48.67
72055;BME280;59936;51.490;5.436;2023-07-13T10:38:53;101500.88;;;24.90;46.79
72055;BME280;59936;51.490;5.436;2023-07-13T10:41:27;101504.28;;;25.43;46.40
72055;BME280;59936;51.490;5.436;2023-07-13T10:44:01;101508.59;;;24.02;47.75
72055;BME280;59936;51.490;5.436;2023-07-13T10:46:31;101508.59;;;24.02;47.75
72055;BME280;59936;51.490;5.436;2023-07-13T10:49:04;101513.72;;;23.33;48.68
72055;BME280;59936;51.490;5.436;2023-07-13T10:51:36;101530.31;;;22.90;49.16
72055;BME280;59936;51.490;5.436;2023-07-13T10:59:40;101542.47;;;21.22;56.36
72055;BME280;59936;51.490;5.436;2023-07-13T11:02:35;101547.66;;;20.98;55.57
72055;BME280;59936;51.490;5.436;2023-07-13T11:05:33;101536.50;;;21.06;55.03
72055;BME280;59936;51.490;5.436;2023-07-13T11:08:18;101539.22;;;21.06;60.01
72055;BME280;59936;51.490;5.436;2023-07-13T11:10:54;101539.44;;;21.93;57.05
72055;BME280;59936;51.490;5.436;2023-07-13T11:19:08;101530.09;;;24.21;52.22
72055;BME280;59936;51.490;5.436;2023-07-13T11:22:09;101534.63;;;24.16;51.29
72055;BME280;59936;51.490;5.436;2023-07-13T11:25:02;101533.91;;;24.20;50.45
72055;BME280;59936;51.490;5.436;2023-07-13T11:28:04;101533.94;;;23.97;51.91
72055;BME280;59936;51.490;5.436;2023-07-13T11:30:46;101533.34;;;23.95;52.13
72055;BME280;59936;51.490;5.436;2023-07-13T11:33:22;101528.94;;;24.06;51.48
72055;BME280;59936;51.490;5.436;2023-07-13T11:36:15;101528.28;;;23.57;51.85
72055;BME280;59936;51.490;5.436;2023-07-13T11:38:58;101529.66;;;23.25;52.20
72055;BME280;59936;51.490;5.436;2023-07-13T11:41:57;101528.00;;;23.05;52.61
72055;BME280;59936;51.490;5.436;2023-07-13T11:44:30;101524.84;;;23.08;52.84
72055;BME280;59936;51.490;5.436;2023-07-13T11:47:09;101524.59;;;23.10;52.64
72055;BME280;59936;51.490;5.436;2023-07-13T11:49:44;101527.38;;;23.22;51.95
72055;BME280;59936;51.490;5.436;2023-07-13T11:52:18;101525.59;;;22.97;51.73
72055;BME280;59936;51.490;5.436;2023-07-13T11:54:55;101529.56;;;22.53;51.09
72055;BME280;59936;51.490;5.436;2023-07-13T11:57:30;101533.56;;;22.50;52.02
72055;BME280;59936;51.490;5.436;2023-07-13T12:00:09;101539.19;;;22.56;51.87
72055;BME280;59936;51.490;5.436;2023-07-13T12:02:44;101539.88;;;22.51;52.05
72055;BME280;59936;51.490;5.436;2023-07-13T12:05:17;101538.59;;;22.53;52.10
72055;BME280;59936;51.490;5.436;2023-07-13T12:07:48;101541.16;;;22.48;52.12
72055;BME280;59936;51.490;5.436;2023-07-13T12:10:25;101543.69;;;22.25;52.68
72055;BME280;59936;51.490;5.436;2023-07-13T12:12:57;101545.78;;;21.87;53.13
72055;BME280;59936;51.490;5.436;2023-07-13T12:15:39;101547.09;;;22.20;52.98
72055;BME280;59936;51.490;5.436;2023-07-13T12:18:14;101534.56;;;22.86;51.50
72055;BME280;59936;51.490;5.436;2023-07-13T12:20:47;101533.75;;;23.57;50.33
72055;BME280;59936;51.490;5.436;2023-07-13T12:23:31;101531.69;;;24.06;49.43
72055;BME280;59936;51.490;5.436;2023-07-13T12:26:03;101539.75;;;24.12;46.34
72055;BME280;59936;51.490;5.436;2023-07-13T12:28:47;101534.84;;;23.79;49.47
72055;BME280;59936;51.490;5.436;2023-07-13T12:31:23;101535.69;;;23.68;49.80
72055;BME280;59936;51.490;5.436;2023-07-13T12:34:08;101550.69;;;23.66;49.44
72055;BME280;59936;51.490;5.436;2023-07-13T12:36:50;101531.53;;;23.66;46.37
72055;BME280;59936;51.490;5.436;2023-07-13T12:39:46;101539.41;;;24.09;47.77
72055;BME280;59936;51.490;5.436;2023-07-13T12:42:25;101539.38;;;24.20;46.61
72055;BME280;59936;51.490;5.436;2023-07-13T12:45:01;101545.53;;;24.51;47.62
72055;BME280;59936;51.490;5.436;2023-07-13T12:47:42;101542.34;;;24.54;47.59
72055;BME280;59936;51.490;5.436;2023-07-13T12:50:17;101542.34;;;24.42;48.12
72055;BME280;59936;51.490;5.436;2023-07-13T12:52:52;101544.59;;;24.45;48.27
72055;BME280;59936;51.490;5.436;2023-07-13T12:55:22;101541.06;;;24.33;48.66
72055;BME280;59936;51.490;5.436;2023-07-13T12:57:54;101549.66;;;24.02;48.96
72055;BME280;59936;51.490;5.436;2023-07-13T13:00:32;101546.28;;;23.65;48.93
72055;BME280;59936;51.490;5.436;2023-07-13T13:03:26;101547.38;;;23.22;49.58
72055;BME280;59936;51.490;5.436;2023-07-13T13:06:21;101543.38;;;22.88;49.91
72055;BME280;59936;51.490;5.436;2023-07-13T13:08:57;101549.94;;;22.69;50.13
72055;BME280;59936;51.490;5.436;2023-07-13T13:11:30;101560.06;;;22.50;50.40
72055;BME280;59936;51.490;5.436;2023-07-13T13:14:00;101564.22;;;22.34;50.78
72055;BME280;59936;51.490;5.436;2023-07-13T13:16:29;101570.00;;;22.19;50.92
72055;BME280;59936;51.490;5.436;2023-07-13T13:19:15;101572.44;;;22.09;50.96
72055;BME280;59936;51.490;5.436;2023-07-13T13:21:48;101573.44;;;21.90;51.20
72055;BME280;59936;51.490;5.436;2023-07-13T13:24:19;101572.88;;;21.81;51.52
72055;BME280;59936;51.490;5.436;2023-07-13T13:26:52;101581.69;;;21.83;51.80
72055;BME280;59936;51.490;5.436;2023-07-13T13:29:24;101580.50;;;21.98;51.65
72055;BME280;59936;51.490;5.436;2023-07-13T13:31:54;101570.75;;;22.08;51.87
72055;BME280;59936;51.490;5.436;2023-07-13T13:34:24;101575.19;;;22.28;51.82
72055;BME280;59936;51.490;5.436;2023-07-13T13:36:54;101586.75;;;22.48;51.45
72055;BME280;59936;51.490;5.436;2023-07-13T13:39:33;101575.38;;;22.51;50.44
72055;BME280;59936;51.490;5.436;2023-07-13T13:42:03;101579.59;;;22.29;50.47
72055;BME280;59936;51.490;5.436;2023-07-13T13:44:32;101584.44;;;22.27;51.28
72055;BME280;59936;51.490;5.436;2023-07-13T13:47:01;101582.28;;;22.53;50.84
72055;BME280;59936;51.490;5.436;2023-07-13T13:49:30;101589.84;;;22.70;50.72
72055;BME280;59936;51.490;5.436;2023-07-13T13:51:59;101595.97;;;22.83;50.75